sensor_id;sensor_type;location;lat;lon;timestamp;P1;durP1;ratioP1;P2;durP2;ratioP2
80101;SDS011;69407;44.966;19.622;2023-07-16T00:00:57;5.55;;;3.47;;
80101;SDS011;69407;44.966;19.622;2023-07-16T00:03:23;5.60;;;3.88;;
80101;SDS011;69407;44.966;19.622;2023-07-16T00:05:51;7.50;;;4.07;;
80101;SDS011;69407;44.966;19.622;2023-07-16T00:08:17;8.75;;;4.88;;
80101;SDS011;69407;44.966;19.622;2023-07-16T00:10:42;7.22;;;4.47;;
80101;SDS011;69407;44.966;19.622;2023-07-16T00:13:08;8.20;;;4.30;;
80101;SDS011;69407;44.966;19.622;2023-07-16T00:15:33;6.55;;;3.83;;
80101;SDS011;69407;44.966;19.622;2023-07-16T00:17:59;10.57;;;4.10;;
80101;SDS011;69407;44.966;19.622;2023-07-16T00:20:24;7.30;;;4.50;;
80101;SDS011;69407;44.966;19.622;2023-07-16T00:22:50;7.07;;;4.18;;
80101;SDS011;69407;44.966;19.622;2023-07-16T00:25:16;7.05;;;3.72;;
80101;SDS011;69407;44.966;19.622;2023-07-16T00:27:42;6.03;;;4.35;;
80101;SDS011;69407;44.966;19.622;2023-07-16T00:30:08;5.63;;;4.03;;
80101;SDS011;69407;44.966;19.622;2023-07-16T00:32:34;8.38;;;3.80;;
80101;SDS011;69407;44.966;19.622;2023-07-16T00:35:00;7.15;;;4.53;;
80101;SDS011;69407;44.966;19.622;2023-07-16T00:37:26;7.15;;;4.28;;
80101;SDS011;69407;44.966;19.622;2023-07-16T00:39:52;10.73;;;4.43;;
80101;SDS011;69407;44.966;19.622;2023-07-16T00:42:17;9.23;;;4.43;;
80101;SDS011;69407;44.966;19.622;2023-07-16T00:44:43;9.25;;;4.35;;
80101;SDS011;69407;44.966;19.622;2023-07-16T00:47:08;6.82;;;4.43;;
80101;SDS011;69407;44.966;19.622;2023-07-16T00:49:34;10.27;;;5.03;;
80101;SDS011;69407;44.966;19.622;2023-07-16T00:52:00;6.80;;;4.78;;
80101;SDS011;69407;44.966;19.622;2023-07-16T00:54:28;8.75;;;4.80;;
80101;SDS011;69407;44.966;19.622;2023-07-16T00:59:20;9.90;;;4.38;;
80101;SDS011;69407;44.966;19.622;2023-07-16T01:01:46;9.48;;;4.30;;
80101;SDS011;69407;44.966;19.622;2023-07-16T01:04:11;6.13;;;4.32;;
80101;SDS011;69407;44.966;19.622;2023-07-16T01:06:41;6.97;;;4.20;;
80101;SDS011;69407;44.966;19.622;2023-07-16T01:09:16;9.82;;;4.72;;
80101;SDS011;69407;44.966;19.622;2023-07-16T01:11:43;7.63;;;4.93;;
80101;SDS011;69407;44.966;19.622;2023-07-16T01:14:10;8.27;;;4.70;;
80101;SDS011;69407;44.966;19.622;2023-07-16T01:16:41;8.60;;;5.00;;
80101;SDS011;69407;44.966;19.622;2023-07-16T01:19:06;8.48;;;4.78;;
80101;SDS011;69407;44.966;19.622;2023-07-16T01:31:59;10.02;;;5.25;;
80101;SDS011;69407;44.966;19.622;2023-07-16T01:34:26;8.40;;;4.63;;
80101;SDS011;69407;44.966;19.622;2023-07-16T01:36:55;9.80;;;4.90;;
80101;SDS011;69407;44.966;19.622;2023-07-16T01:39:20;10.93;;;5.10;;
80101;SDS011;69407;44.966;19.622;2023-07-16T01:41:46;8.63;;;5.78;;
80101;SDS011;69407;44.966;19.622;2023-07-16T01:44:12;11.05;;;5.93;;
80101;SDS011;69407;44.966;19.622;2023-07-16T01:46:37;9.93;;;5.47;;
80101;SDS011;69407;44.966;19.622;2023-07-16T01:49:03;11.52;;;5.57;;
80101;SDS011;69407;44.966;19.622;2023-07-16T01:51:28;8.52;;;5.63;;
80101;SDS011;69407;44.966;19.622;2023-07-16T01:53:54;6.55;;;5.07;;
80101;SDS011;69407;44.966;19.622;2023-07-16T01:56:19;10.93;;;6.03;;
80101;SDS011;69407;44.966;19.622;2023-07-16T01:58:45;10.80;;;5.45;;
80101;SDS011;69407;44.966;19.622;2023-07-16T02:01:10;15.30;;;5.68;;
80101;SDS011;69407;44.966;19.622;2023-07-16T02:03:36;10.73;;;5.43;;
80101;SDS011;69407;44.966;19.622;2023-07-16T02:06:01;10.27;;;5.85;;
80101;SDS011;69407;44.966;19.622;2023-07-16T02:08:27;12.27;;;6.60;;
80101;SDS011;69407;44.966;19.622;2023-07-16T02:10:52;9.93;;;6.38;;
80101;SDS011;69407;44.966;19.622;2023-07-16T02:13:18;8.48;;;5.82;;
80101;SDS011;69407;44.966;19.622;2023-07-16T02:15:43;11.38;;;6.72;;
80101;SDS011;69407;44.966;19.622;2023-07-16T02:18:09;11.05;;;6.25;;
80101;SDS011;69407;44.966;19.622;2023-07-16T02:20:35;13.02;;;6.53;;
80101;SDS011;69407;44.966;19.622;2023-07-16T02:23:00;10.30;;;6.30;;
80101;SDS011;69407;44.966;19.622;2023-07-16T02:25:26;11.90;;;7.05;;
80101;SDS011;69407;44.966;19.622;2023-07-16T02:27:51;12.43;;;7.38;;
80101;SDS011;69407;44.966;19.622;2023-07-16T02:30:17;12.65;;;7.28;;
80101;SDS011;69407;44.966;19.622;2023-07-16T02:32:43;17.38;;;8.32;;
80101;SDS011;69407;44.966;19.622;2023-07-16T02:35:09;11.32;;;6.97;;
80101;SDS011;69407;44.966;19.622;2023-07-16T02:37:35;12.32;;;7.45;;
80101;SDS011;69407;44.966;19.622;2023-07-16T02:40:00;11.30;;;7.63;;
80101;SDS011;69407;44.966;19.622;2023-07-16T02:42:26;10.63;;;7.00;;
80101;SDS011;69407;44.966;19.622;2023-07-16T02:44:51;12.30;;;7.40;;
80101;SDS011;69407;44.966;19.622;2023-07-16T02:47:17;13.75;;;7.07;;
80101;SDS011;69407;44.966;19.622;2023-07-16T02:49:42;13.85;;;7.30;;
80101;SDS011;69407;44.966;19.622;2023-07-16T02:52:08;9.43;;;6.65;;
80101;SDS011;69407;44.966;19.622;2023-07-16T02:54:35;13.27;;;7.28;;
80101;SDS011;69407;44.966;19.622;2023-07-16T02:59:26;13.40;;;7.68;;
80101;SDS011;69407;44.966;19.622;2023-07-16T03:01:52;11.88;;;7.63;;
80101;SDS011;69407;44.966;19.622;2023-07-16T03:04:18;12.52;;;7.78;;
80101;SDS011;69407;44.966;19.622;2023-07-16T03:06:44;13.98;;;7.57;;
80101;SDS011;69407;44.966;19.622;2023-07-16T03:09:09;12.65;;;7.40;;
80101;SDS011;69407;44.966;19.622;2023-07-16T03:11:35;13.82;;;7.70;;
80101;SDS011;69407;44.966;19.622;2023-07-16T03:14:01;14.55;;;8.13;;
80101;SDS011;69407;44.966;19.622;2023-07-16T03:16:26;14.95;;;9.15;;
80101;SDS011;69407;44.966;19.622;2023-07-16T03:18:52;13.80;;;7.53;;
80101;SDS011;69407;44.966;19.622;2023-07-16T03:21:18;13.02;;;7.82;;
80101;SDS011;69407;44.966;19.622;2023-07-16T03:23:43;11.75;;;7.97;;
80101;SDS011;69407;44.966;19.622;2023-07-16T03:26:09;15.43;;;7.80;;
80101;SDS011;69407;44.966;19.622;2023-07-16T03:28:34;12.48;;;7.32;;
80101;SDS011;69407;44.966;19.622;2023-07-16T03:31:00;23.98;;;8.48;;
80101;SDS011;69407;44.966;19.622;2023-07-16T03:33:25;11.80;;;7.65;;
80101;SDS011;69407;44.966;19.622;2023-07-16T03:35:51;12.23;;;7.65;;
80101;SDS011;69407;44.966;19.622;2023-07-16T03:38:16;14.25;;;8.18;;
80101;SDS011;69407;44.966;19.622;2023-07-16T03:40:42;13.38;;;7.57;;
80101;SDS011;69407;44.966;19.622;2023-07-16T03:43:11;13.95;;;7.97;;
80101;SDS011;69407;44.966;19.622;2023-07-16T03:45:37;13.63;;;7.63;;
80101;SDS011;69407;44.966;19.622;2023-07-16T03:48:02;16.38;;;7.95;;
80101;SDS011;69407;44.966;19.622;2023-07-16T03:50:28;14.85;;;7.60;;
80101;SDS011;69407;44.966;19.622;2023-07-16T03:52:54;12.98;;;8.32;;
80101;SDS011;69407;44.966;19.622;2023-07-16T03:55:19;10.77;;;7.50;;
80101;SDS011;69407;44.966;19.622;2023-07-16T03:57:45;11.68;;;7.53;;
80101;SDS011;69407;44.966;19.622;2023-07-16T04:00:10;14.68;;;7.30;;
80101;SDS011;69407;44.966;19.622;2023-07-16T04:02:36;12.35;;;7.55;;
80101;SDS011;69407;44.966;19.622;2023-07-16T04:05:02;11.32;;;7.68;;
80101;SDS011;69407;44.966;19.622;2023-07-16T04:07:28;12.38;;;7.72;;
80101;SDS011;69407;44.966;19.622;2023-07-16T04:09:56;10.82;;;7.55;;
80101;SDS011;69407;44.966;19.622;2023-07-16T04:12:22;11.43;;;7.22;;
80101;SDS011;69407;44.966;19.622;2023-07-16T04:15:06;14.23;;;7.38;;
80101;SDS011;69407;44.966;19.622;2023-07-16T04:17:34;18.25;;;7.95;;
80101;SDS011;69407;44.966;19.622;2023-07-16T04:19:59;10.38;;;6.53;;
80101;SDS011;69407;44.966;19.622;2023-07-16T04:22:24;14.75;;;7.97;;
80101;SDS011;69407;44.966;19.622;2023-07-16T04:24:50;12.48;;;7.95;;
80101;SDS011;69407;44.966;19.622;2023-07-16T04:27:15;12.40;;;7.63;;
80101;SDS011;69407;44.966;19.622;2023-07-16T04:29:41;12.27;;;7.97;;
80101;SDS011;69407;44.966;19.622;2023-07-16T04:32:06;14.70;;;8.25;;
80101;SDS011;69407;44.966;19.622;2023-07-16T04:34:32;14.77;;;6.90;;
80101;SDS011;69407;44.966;19.622;2023-07-16T04:36:57;18.95;;;8.45;;
80101;SDS011;69407;44.966;19.622;2023-07-16T04:39:23;10.77;;;7.88;;
80101;SDS011;69407;44.966;19.622;2023-07-16T04:41:48;13.90;;;7.88;;
80101;SDS011;69407;44.966;19.622;2023-07-16T04:44:14;11.73;;;7.88;;
80101;SDS011;69407;44.966;19.622;2023-07-16T04:46:39;11.43;;;7.63;;
80101;SDS011;69407;44.966;19.622;2023-07-16T04:49:05;15.43;;;8.73;;
80101;SDS011;69407;44.966;19.622;2023-07-16T04:51:31;14.48;;;8.55;;
80101;SDS011;69407;44.966;19.622;2023-07-16T04:53:57;15.55;;;9.00;;
80101;SDS011;69407;44.966;19.622;2023-07-16T04:56:22;13.45;;;9.07;;
80101;SDS011;69407;44.966;19.622;2023-07-16T04:58:48;13.70;;;9.00;;
80101;SDS011;69407;44.966;19.622;2023-07-16T05:01:13;13.65;;;9.38;;
80101;SDS011;69407;44.966;19.622;2023-07-16T05:03:38;12.60;;;8.32;;
80101;SDS011;69407;44.966;19.622;2023-07-16T05:06:04;13.30;;;8.45;;
80101;SDS011;69407;44.966;19.622;2023-07-16T05:08:30;16.38;;;9.05;;
80101;SDS011;69407;44.966;19.622;2023-07-16T05:10:55;14.15;;;10.15;;
80101;SDS011;69407;44.966;19.622;2023-07-16T05:13:21;21.30;;;9.45;;
80101;SDS011;69407;44.966;19.622;2023-07-16T05:15:46;16.05;;;9.52;;
80101;SDS011;69407;44.966;19.622;2023-07-16T05:18:12;17.33;;;8.85;;
80101;SDS011;69407;44.966;19.622;2023-07-16T05:20:37;12.52;;;8.68;;
80101;SDS011;69407;44.966;19.622;2023-07-16T05:23:03;19.75;;;10.50;;
80101;SDS011;69407;44.966;19.622;2023-07-16T05:25:28;13.15;;;9.68;;
80101;SDS011;69407;44.966;19.622;2023-07-16T05:27:54;14.95;;;10.45;;
80101;SDS011;69407;44.966;19.622;2023-07-16T05:30:19;19.00;;;10.43;;
80101;SDS011;69407;44.966;19.622;2023-07-16T05:32:45;17.67;;;10.85;;
80101;SDS011;69407;44.966;19.622;2023-07-16T05:35:10;15.52;;;10.43;;
80101;SDS011;69407;44.966;19.622;2023-07-16T05:37:36;14.13;;;9.60;;
80101;SDS011;69407;44.966;19.622;2023-07-16T05:40:02;14.18;;;9.20;;
80101;SDS011;69407;44.966;19.622;2023-07-16T05:42:28;14.68;;;9.30;;
80101;SDS011;69407;44.966;19.622;2023-07-16T05:44:54;14.23;;;8.90;;
80101;SDS011;69407;44.966;19.622;2023-07-16T05:47:19;18.67;;;8.82;;
80101;SDS011;69407;44.966;19.622;2023-07-16T05:49:45;11.25;;;9.10;;
80101;SDS011;69407;44.966;19.622;2023-07-16T05:52:10;18.13;;;9.43;;
80101;SDS011;69407;44.966;19.622;2023-07-16T05:54:36;15.93;;;9.40;;
80101;SDS011;69407;44.966;19.622;2023-07-16T05:57:01;15.18;;;9.20;;
80101;SDS011;69407;44.966;19.622;2023-07-16T05:59:27;13.20;;;9.50;;
80101;SDS011;69407;44.966;19.622;2023-07-16T06:01:52;14.85;;;8.77;;
80101;SDS011;69407;44.966;19.622;2023-07-16T06:04:18;12.32;;;9.38;;
80101;SDS011;69407;44.966;19.622;2023-07-16T06:06:43;12.65;;;8.95;;
80101;SDS011;69407;44.966;19.622;2023-07-16T06:09:09;13.00;;;9.60;;
80101;SDS011;69407;44.966;19.622;2023-07-16T06:11:34;21.88;;;9.05;;
80101;SDS011;69407;44.966;19.622;2023-07-16T06:14:00;11.82;;;8.88;;
80101;SDS011;69407;44.966;19.622;2023-07-16T06:16:25;12.45;;;8.27;;
80101;SDS011;69407;44.966;19.622;2023-07-16T06:18:51;13.38;;;8.80;;
80101;SDS011;69407;44.966;19.622;2023-07-16T06:21:16;12.15;;;8.27;;
80101;SDS011;69407;44.966;19.622;2023-07-16T06:23:42;14.75;;;8.57;;
80101;SDS011;69407;44.966;19.622;2023-07-16T06:26:08;14.95;;;8.40;;
80101;SDS011;69407;44.966;19.622;2023-07-16T06:28:33;11.77;;;8.27;;
80101;SDS011;69407;44.966;19.622;2023-07-16T06:30:59;12.80;;;8.18;;
80101;SDS011;69407;44.966;19.622;2023-07-16T06:33:24;13.70;;;8.32;;
80101;SDS011;69407;44.966;19.622;2023-07-16T06:38:17;11.85;;;7.35;;
80101;SDS011;69407;44.966;19.622;2023-07-16T06:40:46;9.38;;;7.45;;
80101;SDS011;69407;44.966;19.622;2023-07-16T06:43:15;12.75;;;7.72;;
80101;SDS011;69407;44.966;19.622;2023-07-16T06:45:41;9.32;;;7.68;;
80101;SDS011;69407;44.966;19.622;2023-07-16T06:48:07;13.57;;;7.72;;
80101;SDS011;69407;44.966;19.622;2023-07-16T06:50:32;12.85;;;7.70;;
80101;SDS011;69407;44.966;19.622;2023-07-16T06:52:57;12.40;;;7.50;;
80101;SDS011;69407;44.966;19.622;2023-07-16T06:55:23;11.70;;;7.75;;
80101;SDS011;69407;44.966;19.622;2023-07-16T06:57:48;12.65;;;7.97;;
80101;SDS011;69407;44.966;19.622;2023-07-16T07:00:14;13.20;;;7.50;;
80101;SDS011;69407;44.966;19.622;2023-07-16T07:02:39;8.68;;;6.68;;
80101;SDS011;69407;44.966;19.622;2023-07-16T07:05:06;10.18;;;7.30;;
80101;SDS011;69407;44.966;19.622;2023-07-16T07:07:31;13.18;;;7.90;;
80101;SDS011;69407;44.966;19.622;2023-07-16T07:09:57;11.95;;;7.35;;
80101;SDS011;69407;44.966;19.622;2023-07-16T07:12:22;12.70;;;7.28;;
80101;SDS011;69407;44.966;19.622;2023-07-16T07:14:48;10.10;;;6.55;;
80101;SDS011;69407;44.966;19.622;2023-07-16T07:17:14;10.95;;;8.13;;
80101;SDS011;69407;44.966;19.622;2023-07-16T07:19:39;13.13;;;8.25;;
80101;SDS011;69407;44.966;19.622;2023-07-16T07:22:05;12.65;;;9.15;;
80101;SDS011;69407;44.966;19.622;2023-07-16T07:24:31;12.55;;;7.63;;
80101;SDS011;69407;44.966;19.622;2023-07-16T07:26:56;12.65;;;8.40;;
80101;SDS011;69407;44.966;19.622;2023-07-16T07:29:22;15.07;;;8.73;;
80101;SDS011;69407;44.966;19.622;2023-07-16T07:31:47;13.30;;;8.57;;
80101;SDS011;69407;44.966;19.622;2023-07-16T07:34:13;12.35;;;9.55;;
80101;SDS011;69407;44.966;19.622;2023-07-16T07:36:38;12.90;;;8.55;;
80101;SDS011;69407;44.966;19.622;2023-07-16T07:39:04;12.45;;;8.32;;
80101;SDS011;69407;44.966;19.622;2023-07-16T07:41:29;12.25;;;8.35;;
80101;SDS011;69407;44.966;19.622;2023-07-16T07:43:55;13.65;;;8.77;;
80101;SDS011;69407;44.966;19.622;2023-07-16T07:46:20;17.65;;;8.55;;
80101;SDS011;69407;44.966;19.622;2023-07-16T07:48:45;15.32;;;8.52;;
80101;SDS011;69407;44.966;19.622;2023-07-16T07:51:11;13.77;;;7.88;;
80101;SDS011;69407;44.966;19.622;2023-07-16T07:53:37;14.45;;;9.38;;
80101;SDS011;69407;44.966;19.622;2023-07-16T07:56:02;13.25;;;8.38;;
80101;SDS011;69407;44.966;19.622;2023-07-16T07:58:28;17.50;;;8.30;;
80101;SDS011;69407;44.966;19.622;2023-07-16T08:00:53;13.70;;;9.38;;
80101;SDS011;69407;44.966;19.622;2023-07-16T08:03:19;16.98;;;8.73;;
80101;SDS011;69407;44.966;19.622;2023-07-16T08:05:44;13.13;;;8.30;;
80101;SDS011;69407;44.966;19.622;2023-07-16T08:08:12;11.35;;;7.35;;
80101;SDS011;69407;44.966;19.622;2023-07-16T08:10:38;11.00;;;7.80;;
80101;SDS011;69407;44.966;19.622;2023-07-16T08:13:05;12.55;;;7.22;;
80101;SDS011;69407;44.966;19.622;2023-07-16T08:15:31;12.15;;;8.05;;
80101;SDS011;69407;44.966;19.622;2023-07-16T08:17:56;11.43;;;7.55;;
80101;SDS011;69407;44.966;19.622;2023-07-16T08:20:24;11.75;;;8.10;;
80101;SDS011;69407;44.966;19.622;2023-07-16T08:22:50;13.07;;;8.07;;
80101;SDS011;69407;44.966;19.622;2023-07-16T08:25:16;10.02;;;8.05;;
80101;SDS011;69407;44.966;19.622;2023-07-16T08:27:41;10.30;;;7.78;;
80101;SDS011;69407;44.966;19.622;2023-07-16T08:30:07;11.43;;;8.18;;
80101;SDS011;69407;44.966;19.622;2023-07-16T08:32:33;9.65;;;7.60;;
80101;SDS011;69407;44.966;19.622;2023-07-16T08:34:58;9.30;;;7.70;;
80101;SDS011;69407;44.966;19.622;2023-07-16T08:37:24;11.25;;;8.63;;
80101;SDS011;69407;44.966;19.622;2023-07-16T08:39:52;13.50;;;8.85;;
80101;SDS011;69407;44.966;19.622;2023-07-16T08:42:18;12.70;;;8.20;;
80101;SDS011;69407;44.966;19.622;2023-07-16T08:44:44;13.70;;;7.15;;
80101;SDS011;69407;44.966;19.622;2023-07-16T08:47:10;15.52;;;8.43;;
80101;SDS011;69407;44.966;19.622;2023-07-16T08:49:35;10.52;;;7.85;;
80101;SDS011;69407;44.966;19.622;2023-07-16T08:52:02;10.95;;;8.27;;
80101;SDS011;69407;44.966;19.622;2023-07-16T08:54:30;9.00;;;7.35;;
80101;SDS011;69407;44.966;19.622;2023-07-16T08:56:55;8.48;;;7.55;;
80101;SDS011;69407;44.966;19.622;2023-07-16T08:59:22;8.95;;;7.63;;
80101;SDS011;69407;44.966;19.622;2023-07-16T09:01:47;10.93;;;6.78;;
80101;SDS011;69407;44.966;19.622;2023-07-16T09:04:14;11.30;;;7.57;;
80101;SDS011;69407;44.966;19.622;2023-07-16T09:06:40;9.88;;;7.05;;
80101;SDS011;69407;44.966;19.622;2023-07-16T09:09:06;11.00;;;7.95;;
80101;SDS011;69407;44.966;19.622;2023-07-16T09:11:32;12.55;;;7.30;;
80101;SDS011;69407;44.966;19.622;2023-07-16T09:14:01;9.45;;;7.60;;
80101;SDS011;69407;44.966;19.622;2023-07-16T09:16:27;9.20;;;7.75;;
80101;SDS011;69407;44.966;19.622;2023-07-16T09:19:02;10.50;;;8.00;;
80101;SDS011;69407;44.966;19.622;2023-07-16T09:21:30;10.25;;;8.10;;
80101;SDS011;69407;44.966;19.622;2023-07-16T09:23:59;13.50;;;8.55;;
80101;SDS011;69407;44.966;19.622;2023-07-16T09:26:24;14.85;;;7.97;;
80101;SDS011;69407;44.966;19.622;2023-07-16T09:28:49;10.27;;;8.02;;
80101;SDS011;69407;44.966;19.622;2023-07-16T09:31:15;9.20;;;8.07;;
80101;SDS011;69407;44.966;19.622;2023-07-16T09:33:40;12.85;;;9.82;;
80101;SDS011;69407;44.966;19.622;2023-07-16T09:36:06;11.65;;;9.05;;
80101;SDS011;69407;44.966;19.622;2023-07-16T09:38:31;12.15;;;8.40;;
80101;SDS011;69407;44.966;19.622;2023-07-16T09:40:58;13.07;;;9.23;;
80101;SDS011;69407;44.966;19.622;2023-07-16T09:43:24;12.27;;;8.35;;
80101;SDS011;69407;44.966;19.622;2023-07-16T09:45:50;12.65;;;8.38;;
80101;SDS011;69407;44.966;19.622;2023-07-16T09:48:15;12.30;;;9.20;;
80101;SDS011;69407;44.966;19.622;2023-07-16T09:50:43;13.43;;;9.60;;
80101;SDS011;69407;44.966;19.622;2023-07-16T09:53:19;12.13;;;8.98;;
80101;SDS011;69407;44.966;19.622;2023-07-16T09:58:11;10.98;;;8.68;;
80101;SDS011;69407;44.966;19.622;2023-07-16T10:00:38;10.77;;;9.68;;
80101;SDS011;69407;44.966;19.622;2023-07-16T10:03:05;10.75;;;9.45;;
80101;SDS011;69407;44.966;19.622;2023-07-16T10:05:35;12.85;;;10.45;;
80101;SDS011;69407;44.966;19.622;2023-07-16T10:08:02;14.63;;;10.75;;
80101;SDS011;69407;44.966;19.622;2023-07-16T10:10:41;14.80;;;11.95;;
80101;SDS011;69407;44.966;19.622;2023-07-16T10:13:08;15.90;;;11.63;;
80101;SDS011;69407;44.966;19.622;2023-07-16T10:15:37;14.27;;;11.38;;
80101;SDS011;69407;44.966;19.622;2023-07-16T10:18:03;15.77;;;14.07;;
80101;SDS011;69407;44.966;19.622;2023-07-16T10:20:33;17.70;;;13.07;;
80101;SDS011;69407;44.966;19.622;2023-07-16T10:23:10;16.75;;;14.85;;
80101;SDS011;69407;44.966;19.622;2023-07-16T10:25:39;18.75;;;13.32;;
80101;SDS011;69407;44.966;19.622;2023-07-16T10:28:06;21.13;;;18.92;;
80101;SDS011;69407;44.966;19.622;2023-07-16T10:30:32;21.25;;;18.33;;
80101;SDS011;69407;44.966;19.622;2023-07-16T10:33:02;23.30;;;18.45;;
80101;SDS011;69407;44.966;19.622;2023-07-16T10:35:28;19.70;;;17.75;;
80101;SDS011;69407;44.966;19.622;2023-07-16T10:37:54;16.35;;;14.25;;
80101;SDS011;69407;44.966;19.622;2023-07-16T10:40:19;16.75;;;14.98;;
80101;SDS011;69407;44.966;19.622;2023-07-16T10:42:45;16.02;;;13.73;;
80101;SDS011;69407;44.966;19.622;2023-07-16T10:45:13;16.63;;;14.90;;
80101;SDS011;69407;44.966;19.622;2023-07-16T10:47:50;16.88;;;14.88;;
80101;SDS011;69407;44.966;19.622;2023-07-16T10:50:18;17.23;;;14.63;;
80101;SDS011;69407;44.966;19.622;2023-07-16T10:52:44;18.42;;;14.20;;
80101;SDS011;69407;44.966;19.622;2023-07-16T10:55:09;16.60;;;14.85;;
80101;SDS011;69407;44.966;19.622;2023-07-16T10:57:35;17.98;;;15.20;;
80101;SDS011;69407;44.966;19.622;2023-07-16T11:00:01;24.52;;;22.17;;
80101;SDS011;69407;44.966;19.622;2023-07-16T11:02:26;21.40;;;19.25;;
80101;SDS011;69407;44.966;19.622;2023-07-16T11:04:52;19.23;;;17.13;;
80101;SDS011;69407;44.966;19.622;2023-07-16T11:07:19;18.98;;;16.73;;
80101;SDS011;69407;44.966;19.622;2023-07-16T11:09:49;20.45;;;17.67;;
80101;SDS011;69407;44.966;19.622;2023-07-16T11:12:18;18.30;;;16.40;;
80101;SDS011;69407;44.966;19.622;2023-07-16T11:14:46;18.17;;;16.33;;
80101;SDS011;69407;44.966;19.622;2023-07-16T11:17:14;19.45;;;16.80;;
80101;SDS011;69407;44.966;19.622;2023-07-16T11:19:40;25.35;;;17.52;;
80101;SDS011;69407;44.966;19.622;2023-07-16T11:22:09;16.40;;;14.68;;
80101;SDS011;69407;44.966;19.622;2023-07-16T11:27:04;20.10;;;16.85;;
80101;SDS011;69407;44.966;19.622;2023-07-16T11:29:34;17.23;;;14.13;;
80101;SDS011;69407;44.966;19.622;2023-07-16T11:32:01;18.50;;;15.07;;
80101;SDS011;69407;44.966;19.622;2023-07-16T11:34:27;20.23;;;14.35;;
80101;SDS011;69407;44.966;19.622;2023-07-16T11:36:52;19.55;;;16.02;;
80101;SDS011;69407;44.966;19.622;2023-07-16T11:39:18;15.48;;;13.73;;
80101;SDS011;69407;44.966;19.622;2023-07-16T11:41:57;15.23;;;13.57;;
80101;SDS011;69407;44.966;19.622;2023-07-16T11:44:23;15.38;;;13.07;;
80101;SDS011;69407;44.966;19.622;2023-07-16T11:46:48;18.00;;;13.52;;
80101;SDS011;69407;44.966;19.622;2023-07-16T11:49:15;17.13;;;13.00;;
80101;SDS011;69407;44.966;19.622;2023-07-16T11:51:41;15.35;;;12.88;;
80101;SDS011;69407;44.966;19.622;2023-07-16T11:54:09;13.73;;;12.30;;
80101;SDS011;69407;44.966;19.622;2023-07-16T11:56:35;15.13;;;12.68;;
80101;SDS011;69407;44.966;19.622;2023-07-16T11:59:01;13.07;;;11.15;;
80101;SDS011;69407;44.966;19.622;2023-07-16T12:01:26;14.63;;;12.55;;
80101;SDS011;69407;44.966;19.622;2023-07-16T12:03:52;16.17;;;11.77;;
80101;SDS011;69407;44.966;19.622;2023-07-16T12:06:18;17.13;;;13.40;;
80101;SDS011;69407;44.966;19.622;2023-07-16T12:08:43;13.57;;;12.15;;
80101;SDS011;69407;44.966;19.622;2023-07-16T12:11:08;12.63;;;11.27;;
80101;SDS011;69407;44.966;19.622;2023-07-16T12:13:34;14.82;;;12.60;;
80101;SDS011;69407;44.966;19.622;2023-07-16T12:16:00;13.00;;;11.15;;
80101;SDS011;69407;44.966;19.622;2023-07-16T12:18:25;15.43;;;13.77;;
80101;SDS011;69407;44.966;19.622;2023-07-16T12:20:51;17.20;;;13.98;;
80101;SDS011;69407;44.966;19.622;2023-07-16T12:23:17;14.30;;;12.77;;
80101;SDS011;69407;44.966;19.622;2023-07-16T12:25:42;16.35;;;11.93;;
80101;SDS011;69407;44.966;19.622;2023-07-16T12:28:08;13.98;;;12.63;;
80101;SDS011;69407;44.966;19.622;2023-07-16T12:30:34;13.05;;;11.70;;
80101;SDS011;69407;44.966;19.622;2023-07-16T12:33:00;13.82;;;11.43;;
80101;SDS011;69407;44.966;19.622;2023-07-16T12:35:25;12.25;;;10.77;;
80101;SDS011;69407;44.966;19.622;2023-07-16T12:37:51;11.85;;;10.45;;
80101;SDS011;69407;44.966;19.622;2023-07-16T12:40:16;13.00;;;9.95;;
80101;SDS011;69407;44.966;19.622;2023-07-16T12:42:42;12.88;;;11.65;;
80101;SDS011;69407;44.966;19.622;2023-07-16T12:45:07;16.45;;;10.43;;
80101;SDS011;69407;44.966;19.622;2023-07-16T12:47:33;11.60;;;10.45;;
80101;SDS011;69407;44.966;19.622;2023-07-16T12:49:58;12.25;;;11.00;;
80101;SDS011;69407;44.966;19.622;2023-07-16T12:52:24;11.88;;;10.63;;
80101;SDS011;69407;44.966;19.622;2023-07-16T12:54:49;11.43;;;9.60;;
80101;SDS011;69407;44.966;19.622;2023-07-16T12:57:17;12.43;;;10.40;;
80101;SDS011;69407;44.966;19.622;2023-07-16T12:59:42;11.02;;;9.73;;
80101;SDS011;69407;44.966;19.622;2023-07-16T13:02:08;12.02;;;10.70;;
80101;SDS011;69407;44.966;19.622;2023-07-16T13:04:33;11.13;;;10.00;;
80101;SDS011;69407;44.966;19.622;2023-07-16T13:06:59;12.45;;;10.40;;
80101;SDS011;69407;44.966;19.622;2023-07-16T13:09:24;11.65;;;9.98;;
80101;SDS011;69407;44.966;19.622;2023-07-16T13:11:50;12.00;;;10.07;;
80101;SDS011;69407;44.966;19.622;2023-07-16T13:14:16;9.73;;;8.73;;
80101;SDS011;69407;44.966;19.622;2023-07-16T13:16:42;12.00;;;9.52;;
80101;SDS011;69407;44.966;19.622;2023-07-16T13:19:07;9.52;;;8.52;;
80101;SDS011;69407;44.966;19.622;2023-07-16T13:21:33;10.68;;;8.65;;
80101;SDS011;69407;44.966;19.622;2023-07-16T13:23:58;11.40;;;8.30;;
80101;SDS011;69407;44.966;19.622;2023-07-16T13:26:24;9.10;;;7.65;;
80101;SDS011;69407;44.966;19.622;2023-07-16T13:28:49;14.52;;;8.57;;
80101;SDS011;69407;44.966;19.622;2023-07-16T13:31:15;9.48;;;6.75;;
80101;SDS011;69407;44.966;19.622;2023-07-16T13:33:40;8.85;;;6.75;;
80101;SDS011;69407;44.966;19.622;2023-07-16T13:36:06;7.88;;;7.07;;
80101;SDS011;69407;44.966;19.622;2023-07-16T13:38:31;7.57;;;5.95;;
80101;SDS011;69407;44.966;19.622;2023-07-16T13:40:57;7.93;;;6.35;;
80101;SDS011;69407;44.966;19.622;2023-07-16T13:43:22;8.23;;;7.22;;
80101;SDS011;69407;44.966;19.622;2023-07-16T13:45:49;7.35;;;6.55;;
80101;SDS011;69407;44.966;19.622;2023-07-16T13:48:15;12.82;;;7.55;;
80101;SDS011;69407;44.966;19.622;2023-07-16T13:50:40;9.32;;;7.38;;
80101;SDS011;69407;44.966;19.622;2023-07-16T13:53:05;8.10;;;7.28;;
80101;SDS011;69407;44.966;19.622;2023-07-16T13:55:31;7.30;;;5.65;;
80101;SDS011;69407;44.966;19.622;2023-07-16T13:57:56;8.10;;;6.13;;
80101;SDS011;69407;44.966;19.622;2023-07-16T14:00:22;7.20;;;5.30;;
80101;SDS011;69407;44.966;19.622;2023-07-16T14:02:48;6.03;;;4.97;;
80101;SDS011;69407;44.966;19.622;2023-07-16T14:05:13;8.95;;;5.20;;
80101;SDS011;69407;44.966;19.622;2023-07-16T14:07:39;4.97;;;4.10;;
80101;SDS011;69407;44.966;19.622;2023-07-16T14:10:04;6.82;;;4.45;;
80101;SDS011;69407;44.966;19.622;2023-07-16T14:12:32;6.90;;;4.07;;
80101;SDS011;69407;44.966;19.622;2023-07-16T14:14:59;8.63;;;4.75;;
80101;SDS011;69407;44.966;19.622;2023-07-16T14:17:25;5.43;;;4.45;;
80101;SDS011;69407;44.966;19.622;2023-07-16T14:19:50;8.77;;;4.72;;
80101;SDS011;69407;44.966;19.622;2023-07-16T14:22:16;5.50;;;4.72;;
80101;SDS011;69407;44.966;19.622;2023-07-16T14:24:42;7.50;;;4.43;;
80101;SDS011;69407;44.966;19.622;2023-07-16T14:27:07;9.55;;;5.55;;
80101;SDS011;69407;44.966;19.622;2023-07-16T14:29:34;6.95;;;5.35;;
80101;SDS011;69407;44.966;19.622;2023-07-16T14:32:00;7.35;;;5.05;;
80101;SDS011;69407;44.966;19.622;2023-07-16T14:34:25;5.95;;;4.63;;
80101;SDS011;69407;44.966;19.622;2023-07-16T14:36:51;7.13;;;4.20;;